createdAt,value
2018-07-14T00:01:42.705Z,14.70
2018-07-14T00:04:11.077Z,14.67
2018-07-14T00:06:39.403Z,14.33
2018-07-14T00:09:07.757Z,13.33
2018-07-14T00:11:36.106Z,14.27
2018-07-14T00:14:04.468Z,13.83
2018-07-14T00:16:32.509Z,22.60
2018-07-14T00:19:00.860Z,36.90
2018-07-14T00:21:29.232Z,69.30
2018-07-14T00:23:57.573Z,86.00
2018-07-14T00:26:25.897Z,92.83
2018-07-14T00:28:54.219Z,73.43
2018-07-14T00:31:22.567Z,78.87
2018-07-14T00:33:50.882Z,68.03
2018-07-14T00:36:19.240Z,50.50
2018-07-14T00:38:47.305Z,49.23
2018-07-14T00:41:15.639Z,57.53
2018-07-14T00:43:43.998Z,59.73
2018-07-14T00:46:12.354Z,54.13
2018-07-14T00:48:40.674Z,58.83
2018-07-14T00:51:09.071Z,96.93
2018-07-14T00:53:37.395Z,119.97
2018-07-14T00:56:05.842Z,111.57
2018-07-14T00:58:34.182Z,115.60
2018-07-14T01:01:02.519Z,79.40
2018-07-14T01:03:30.872Z,84.40
2018-07-14T01:05:59.232Z,88.37
2018-07-14T01:08:27.613Z,91.93
2018-07-14T01:10:55.984Z,88.47
2018-07-14T01:13:24.388Z,81.20
2018-07-14T01:15:52.815Z,90.40
2018-07-14T01:18:21.188Z,131.63
2018-07-14T01:20:49.523Z,111.90
2018-07-14T01:23:17.870Z,113.43
2018-07-14T01:25:46.231Z,113.67
2018-07-14T01:28:14.321Z,115.23
2018-07-14T01:30:42.705Z,111.87
2018-07-14T01:33:11.038Z,106.80
2018-07-14T01:35:39.391Z,106.83
2018-07-14T01:38:07.795Z,107.00
2018-07-14T01:40:36.188Z,108.03
2018-07-14T01:43:04.487Z,105.73
2018-07-14T01:45:32.851Z,103.37
2018-07-14T01:48:01.211Z,103.03
2018-07-14T01:50:29.731Z,99.93
2018-07-14T01:52:58.071Z,101.27
2018-07-14T01:55:26.460Z,98.83
2018-07-14T01:57:54.910Z,97.37
2018-07-14T02:00:23.245Z,101.60
2018-07-14T02:02:51.583Z,93.37
2018-07-14T02:05:19.963Z,90.27
2018-07-14T02:07:48.074Z,92.40
2018-07-14T02:10:16.464Z,94.23
2018-07-14T02:12:44.811Z,94.03
2018-07-14T02:15:13.158Z,85.53
2018-07-14T02:17:41.553Z,81.67
2018-07-14T02:20:09.961Z,86.07
2018-07-14T02:22:38.294Z,102.60
2018-07-14T02:25:06.420Z,108.40
2018-07-14T02:27:34.968Z,98.47
2018-07-14T02:30:03.304Z,111.83
2018-07-14T02:32:31.632Z,111.23
2018-07-14T02:34:59.958Z,114.27
2018-07-14T02:37:28.562Z,105.20
2018-07-14T02:39:56.891Z,102.67
2018-07-14T02:42:25.364Z,110.33
2018-07-14T02:44:53.781Z,106.00
2018-07-14T02:47:22.067Z,99.17
2018-07-14T02:49:50.465Z,99.13
2018-07-14T02:52:19.084Z,99.93
2018-07-14T02:54:47.831Z,97.00
2018-07-14T02:57:16.224Z,99.67
2018-07-14T02:59:44.637Z,96.67
2018-07-14T03:02:12.674Z,91.10
2018-07-14T03:04:41.015Z,91.27
2018-07-14T03:07:09.352Z,92.30
2018-07-14T03:09:37.754Z,88.77
2018-07-14T03:12:06.358Z,86.20
2018-07-14T03:14:34.697Z,90.33
2018-07-14T03:17:03.055Z,85.33
2018-07-14T03:19:31.434Z,88.70
2018-07-14T03:21:59.820Z,84.20
2018-07-14T03:24:28.171Z,84.87
2018-07-14T03:26:56.574Z,87.00
2018-07-14T03:29:24.789Z,83.93
2018-07-14T03:31:53.152Z,84.40
2018-07-14T03:34:21.504Z,84.33
2018-07-14T03:36:49.848Z,86.37
2018-07-14T03:39:18.364Z,80.27
2018-07-14T03:41:46.729Z,80.43
2018-07-14T03:44:15.083Z,80.23
2018-07-14T03:46:43.621Z,79.37
2018-07-14T03:49:11.979Z,74.07
2018-07-14T03:51:40.374Z,77.77
2018-07-14T03:54:08.441Z,74.30
2018-07-14T03:56:36.833Z,72.90
2018-07-14T03:59:05.612Z,71.67
2018-07-14T04:01:34.096Z,69.40
2018-07-14T04:04:02.455Z,68.07
2018-07-14T04:06:30.805Z,69.90
2018-07-14T04:08:59.171Z,70.93
2018-07-14T04:11:27.490Z,70.53
2018-07-14T04:13:55.907Z,71.80
2018-07-14T04:16:24.319Z,64.53
2018-07-14T04:18:52.633Z,69.97
2018-07-14T04:21:20.707Z,65.57
2018-07-14T04:23:49.027Z,65.87
2018-07-14T04:26:17.400Z,64.27
2018-07-14T04:28:45.755Z,64.00
2018-07-14T04:31:14.089Z,61.00
2018-07-14T04:33:42.416Z,61.30
2018-07-14T04:36:10.799Z,60.57
2018-07-14T04:38:39.131Z,62.17
2018-07-14T04:41:07.715Z,62.80
2018-07-14T04:43:36.082Z,61.47
2018-07-14T04:46:04.876Z,58.73
2018-07-14T04:48:33.202Z,58.80
2018-07-14T04:51:01.540Z,57.97
2018-07-14T04:53:29.923Z,55.87
2018-07-14T04:55:58.138Z,55.87
2018-07-14T04:58:26.542Z,58.00
2018-07-14T05:00:54.868Z,58.87
2018-07-14T05:03:23.261Z,57.10
2018-07-14T05:05:51.325Z,56.43
2018-07-14T05:08:19.731Z,58.13
2018-07-14T05:10:48.159Z,56.77
2018-07-14T05:13:16.518Z,57.80
2018-07-14T05:15:44.866Z,55.00
2018-07-14T05:18:13.377Z,53.10
2018-07-14T05:20:41.731Z,53.57
2018-07-14T05:23:10.116Z,51.50
2018-07-14T05:25:38.655Z,50.10
2018-07-14T05:28:07.246Z,51.17
2018-07-14T05:30:35.579Z,48.33
2018-07-14T05:33:03.932Z,46.13
2018-07-14T05:35:32.255Z,48.90
2018-07-14T05:38:00.862Z,50.37
2018-07-14T05:40:29.211Z,47.23
2018-07-14T05:42:57.630Z,46.10
2018-07-14T05:45:25.968Z,50.10
2018-07-14T05:47:54.315Z,39.57
2018-07-14T05:50:22.665Z,26.73
2018-07-14T05:52:51.060Z,31.73
2018-07-14T05:55:19.410Z,33.73
2018-07-14T05:57:47.765Z,35.00
2018-07-14T06:00:16.133Z,42.50
2018-07-14T06:02:44.527Z,37.23
2018-07-14T06:05:12.860Z,37.87
2018-07-14T06:07:41.224Z,38.30
2018-07-14T06:10:09.580Z,37.30
2018-07-14T06:12:37.880Z,37.00
2018-07-14T06:15:06.226Z,35.17
2018-07-14T06:17:34.540Z,34.87
2018-07-14T06:20:02.903Z,33.40
2018-07-14T06:22:31.305Z,31.17
2018-07-14T06:24:59.647Z,34.87
2018-07-14T06:27:27.968Z,36.70
2018-07-14T06:29:56.342Z,35.20
2018-07-14T06:32:24.729Z,32.90
2018-07-14T06:34:53.049Z,36.17
2018-07-14T06:37:21.401Z,37.83
2018-07-14T06:39:49.740Z,39.40
2018-07-14T06:42:18.330Z,38.93
2018-07-14T06:44:46.746Z,31.03
2018-07-14T06:47:15.049Z,32.00
2018-07-14T06:49:43.422Z,42.03
2018-07-14T06:52:11.872Z,47.73
2018-07-14T06:54:40.055Z,45.27
2018-07-14T06:57:08.388Z,43.73
2018-07-14T06:59:36.812Z,38.43
2018-07-14T07:02:05.131Z,38.40
2018-07-14T07:04:33.464Z,38.87
2018-07-14T07:07:01.837Z,45.17
2018-07-14T07:09:31.951Z,41.77
2018-07-14T07:12:00.335Z,40.93
2018-07-14T07:14:28.695Z,35.03
2018-07-14T07:16:57.217Z,33.87
2018-07-14T07:19:25.309Z,31.10
2018-07-14T07:21:53.646Z,41.27
2018-07-14T07:24:22.023Z,48.00
2018-07-14T07:26:50.435Z,73.70
2018-07-14T07:29:18.790Z,74.73
2018-07-14T07:31:47.117Z,61.20
2018-07-14T07:34:15.483Z,57.53
2018-07-14T07:36:44.003Z,51.83
2018-07-14T07:39:12.334Z,48.87
2018-07-14T07:41:40.654Z,49.23
2018-07-14T07:44:09.060Z,51.90
2018-07-14T07:46:37.363Z,51.70
2018-07-14T07:49:05.804Z,49.90
2018-07-14T07:51:34.283Z,49.87
2018-07-14T07:54:02.617Z,51.80
2018-07-14T07:56:31.090Z,48.60
2018-07-14T07:58:59.463Z,48.63
2018-07-14T08:01:27.751Z,42.20
2018-07-14T08:03:56.078Z,41.00
2018-07-14T08:06:24.414Z,39.57
2018-07-14T08:08:52.765Z,38.97
2018-07-14T08:11:21.098Z,38.23
2018-07-14T08:13:49.770Z,37.50
2018-07-14T08:16:18.120Z,37.47
2018-07-14T08:18:46.453Z,37.50
2018-07-14T08:21:14.805Z,36.53
2018-07-14T08:23:43.130Z,36.13
2018-07-14T08:26:11.225Z,34.30
2018-07-14T08:28:39.318Z,31.63
2018-07-14T08:31:07.695Z,35.43
2018-07-14T08:33:36.027Z,33.60
2018-07-14T08:36:04.538Z,32.07
2018-07-14T08:38:32.891Z,32.53
2018-07-14T08:41:01.218Z,31.43
2018-07-14T08:43:29.597Z,29.60
2018-07-14T08:45:57.942Z,31.77
2018-07-14T08:48:26.248Z,30.33
2018-07-14T08:50:54.567Z,29.60
2018-07-14T08:53:22.935Z,26.70
2018-07-14T08:55:51.307Z,40.23
2018-07-14T08:58:23.031Z,28.63
2018-07-14T09:00:51.344Z,28.23
2018-07-14T09:03:19.660Z,31.50
2018-07-14T09:05:47.713Z,28.90
2018-07-14T09:08:16.043Z,27.17
2018-07-14T09:10:44.389Z,27.20
2018-07-14T09:13:12.749Z,26.07
2018-07-14T09:15:41.084Z,26.87
2018-07-14T09:18:09.504Z,27.13
2018-07-14T09:20:37.805Z,25.17
2018-07-14T09:23:05.915Z,23.40
2018-07-14T09:25:34.247Z,24.33
2018-07-14T09:28:02.581Z,25.07
2018-07-14T09:30:30.915Z,23.30
2018-07-14T09:33:00.185Z,25.27
2018-07-14T09:35:28.691Z,26.13
2018-07-14T09:37:56.888Z,46.80
2018-07-14T09:40:24.928Z,34.13
2018-07-14T09:42:53.245Z,27.23
2018-07-14T09:45:21.580Z,26.37
2018-07-14T09:47:49.937Z,25.63
2018-07-14T09:50:18.207Z,23.90
2018-07-14T09:52:46.540Z,24.20
2018-07-14T09:55:14.949Z,29.50
2018-07-14T09:57:43.239Z,27.30
2018-07-14T10:00:17.104Z,27.07
2018-07-14T10:02:45.454Z,28.50
2018-07-14T10:05:13.889Z,24.47
2018-07-14T10:07:42.357Z,24.23
2018-07-14T10:10:10.705Z,23.67
2018-07-14T10:12:39.115Z,22.50
2018-07-14T10:15:07.871Z,19.63
2018-07-14T10:17:36.249Z,18.50
2018-07-14T10:20:04.630Z,19.03
2018-07-14T10:22:32.987Z,19.00
2018-07-14T10:25:01.154Z,20.67
2018-07-14T10:27:29.467Z,18.87
2018-07-14T10:29:57.952Z,19.70
2018-07-14T10:32:26.294Z,18.93
2018-07-14T10:34:54.657Z,17.60
2018-07-14T10:37:22.996Z,18.20
2018-07-14T10:39:51.403Z,17.40
2018-07-14T10:42:19.771Z,19.13
2018-07-14T10:44:48.068Z,18.53
2018-07-14T10:47:16.395Z,15.60
2018-07-14T10:49:44.740Z,15.93
2018-07-14T10:52:13.051Z,15.80
2018-07-14T10:54:41.444Z,16.37
2018-07-14T10:57:09.820Z,16.10
2018-07-14T10:59:38.152Z,16.63
2018-07-14T11:02:06.690Z,16.03
2018-07-14T11:04:35.070Z,15.37
2018-07-14T11:07:03.650Z,16.10
2018-07-14T11:09:32.007Z,15.30
2018-07-14T11:12:00.449Z,15.50
2018-07-14T11:14:28.806Z,14.57
2018-07-14T11:16:57.203Z,16.80
2018-07-14T11:19:25.555Z,16.93
2018-07-14T11:21:54.062Z,18.20
2018-07-14T11:24:22.395Z,18.00
2018-07-14T11:26:50.726Z,16.00
2018-07-14T11:29:19.056Z,14.03
2018-07-14T11:31:47.408Z,12.73
2018-07-14T11:34:15.756Z,13.10
2018-07-14T11:36:44.095Z,12.43
2018-07-14T11:39:12.411Z,11.70
2018-07-14T11:41:40.775Z,12.63
2018-07-14T11:44:09.183Z,12.10
2018-07-14T11:46:37.516Z,12.53
2018-07-14T11:49:05.867Z,12.23
2018-07-14T11:51:34.291Z,11.13
2018-07-14T11:54:02.637Z,14.20
2018-07-14T11:56:30.974Z,16.17
2018-07-14T11:58:59.308Z,17.93
2018-07-14T12:01:27.724Z,19.57
2018-07-14T12:03:56.072Z,19.30
2018-07-14T12:06:24.503Z,16.50
2018-07-14T12:08:52.818Z,21.60
2018-07-14T12:11:21.208Z,23.23
2018-07-14T12:13:49.562Z,23.33
2018-07-14T12:16:18.095Z,22.07
2018-07-14T12:18:46.454Z,19.10
2018-07-14T12:21:14.804Z,20.67
2018-07-14T12:23:43.183Z,19.97
2018-07-14T12:26:11.505Z,19.20
2018-07-14T12:28:39.827Z,19.47
2018-07-14T12:31:08.159Z,19.20
2018-07-14T12:33:36.479Z,19.07
2018-07-14T12:36:04.686Z,16.60
2018-07-14T12:38:33.015Z,15.97
2018-07-14T12:41:01.411Z,15.00
2018-07-14T12:43:29.884Z,14.67
2018-07-14T12:45:58.098Z,13.40
2018-07-14T12:48:26.434Z,13.47
2018-07-14T12:50:54.763Z,11.67
2018-07-14T12:53:23.086Z,11.47
2018-07-14T12:55:51.605Z,10.03
2018-07-14T12:58:22.214Z,10.77
2018-07-14T13:00:52.635Z,19.60
2018-07-14T13:03:20.968Z,16.43
2018-07-14T13:05:49.375Z,17.07
2018-07-14T13:08:17.718Z,18.37
2018-07-14T13:10:46.209Z,18.93
2018-07-14T13:13:14.552Z,20.27
2018-07-14T13:15:42.933Z,17.10
2018-07-14T13:18:11.277Z,16.23
2018-07-14T13:20:39.723Z,15.77
2018-07-14T13:23:08.041Z,15.00
2018-07-14T13:25:36.438Z,13.77
2018-07-14T13:28:04.802Z,13.90
2018-07-14T13:30:32.866Z,13.73
2018-07-14T13:33:01.339Z,13.23
2018-07-14T13:35:29.425Z,13.57
2018-07-14T13:37:57.506Z,23.00
2018-07-14T13:40:25.833Z,15.77
2018-07-14T13:42:54.213Z,16.63
2018-07-14T13:45:22.526Z,18.47
2018-07-14T13:47:50.850Z,15.27
2018-07-14T13:50:19.231Z,12.87
2018-07-14T13:52:47.623Z,13.00
2018-07-14T13:55:15.983Z,14.07
2018-07-14T13:57:44.355Z,12.30
2018-07-14T14:00:12.696Z,13.03
2018-07-14T14:02:41.028Z,13.60
2018-07-14T14:05:09.451Z,12.63
2018-07-14T14:07:37.813Z,11.90
2018-07-14T14:10:06.247Z,12.70
2018-07-14T14:12:34.746Z,11.83
2018-07-14T14:15:03.126Z,15.77
2018-07-14T14:17:31.528Z,13.67
2018-07-14T14:19:59.856Z,11.67
2018-07-14T14:22:28.206Z,20.77
2018-07-14T14:24:56.519Z,32.73
2018-07-14T14:27:24.867Z,33.97
2018-07-14T14:29:53.184Z,20.13
2018-07-14T14:32:21.540Z,19.53
2018-07-14T14:34:49.878Z,20.07
2018-07-14T14:37:18.230Z,18.03
2018-07-14T14:39:46.570Z,15.93
2018-07-14T14:42:14.896Z,17.13
2018-07-14T14:44:43.247Z,17.03
2018-07-14T14:47:11.549Z,18.40
2018-07-14T14:49:39.951Z,17.80
2018-07-14T14:52:08.159Z,16.77
2018-07-14T14:54:36.708Z,17.30
2018-07-14T14:57:05.246Z,16.23
2018-07-14T14:59:33.547Z,16.70
2018-07-14T15:02:01.875Z,16.40
2018-07-14T15:04:30.262Z,16.73
2018-07-14T15:06:58.561Z,16.50
2018-07-14T15:09:26.922Z,14.97
2018-07-14T15:11:55.265Z,15.43
2018-07-14T15:14:23.628Z,17.77
2018-07-14T15:16:51.970Z,16.33
2018-07-14T15:19:20.324Z,15.47
2018-07-14T15:21:48.678Z,17.00
2018-07-14T15:24:16.754Z,17.47
2018-07-14T15:26:45.079Z,20.00
2018-07-14T15:29:13.411Z,19.27
2018-07-14T15:31:41.707Z,16.83
2018-07-14T15:34:10.049Z,18.30
2018-07-14T15:36:38.379Z,16.13
2018-07-14T15:39:06.694Z,16.57
2018-07-14T15:41:35.084Z,16.97
2018-07-14T15:44:03.382Z,15.23
2018-07-14T15:46:31.745Z,15.30
2018-07-14T15:49:00.060Z,15.73
2018-07-14T15:51:28.407Z,14.03
2018-07-14T15:53:56.723Z,15.07
2018-07-14T15:56:25.053Z,13.13
2018-07-14T15:58:53.126Z,13.90
2018-07-14T16:01:21.463Z,13.43
2018-07-14T16:03:49.792Z,13.27
2018-07-14T16:06:18.115Z,12.80
2018-07-14T16:08:46.455Z,13.70
2018-07-14T16:11:14.896Z,12.60
2018-07-14T16:13:43.213Z,12.07
2018-07-14T16:16:11.535Z,13.00
2018-07-14T16:18:39.854Z,12.57
2018-07-14T16:21:08.170Z,12.23
2018-07-14T16:23:36.500Z,11.47
2018-07-14T16:26:04.812Z,11.67
2018-07-14T16:28:33.283Z,23.30
2018-07-14T16:31:01.646Z,28.93
2018-07-14T16:33:29.963Z,39.77
2018-07-14T16:35:58.424Z,27.37
2018-07-14T16:38:26.643Z,33.63
2018-07-14T16:40:55.011Z,35.40
2018-07-14T16:43:23.316Z,37.93
2018-07-14T16:45:51.638Z,34.77
2018-07-14T16:48:19.948Z,35.17
2018-07-14T16:50:48.279Z,34.60
2018-07-14T16:53:16.593Z,33.53
2018-07-14T16:55:44.933Z,33.70
2018-07-14T16:58:13.239Z,32.70
2018-07-14T17:00:41.639Z,42.10
2018-07-14T17:03:11.751Z,46.77
2018-07-14T17:05:40.229Z,43.80
2018-07-14T17:08:08.581Z,49.10
2018-07-14T17:10:36.930Z,47.63
2018-07-14T17:13:05.271Z,40.83
2018-07-14T17:15:33.660Z,42.73
2018-07-14T17:18:01.990Z,42.00
2018-07-14T17:20:30.312Z,43.37
2018-07-14T17:22:58.684Z,43.20
2018-07-14T17:25:27.046Z,40.87
2018-07-14T17:27:55.394Z,43.20
2018-07-14T17:30:23.717Z,43.73
2018-07-14T17:32:52.015Z,46.27
2018-07-14T17:35:20.328Z,44.33
2018-07-14T17:37:48.390Z,42.77
2018-07-14T17:40:16.731Z,44.10
2018-07-14T17:42:45.071Z,42.37
2018-07-14T17:45:13.399Z,43.53
2018-07-14T17:47:41.725Z,51.33
2018-07-14T17:50:10.076Z,51.40
2018-07-14T17:52:38.422Z,48.53
2018-07-14T17:55:06.737Z,46.83
2018-07-14T17:57:35.346Z,49.43
2018-07-14T18:00:03.736Z,64.87
2018-07-14T18:02:32.045Z,53.27
2018-07-14T18:05:00.342Z,51.47
2018-07-14T18:07:28.814Z,69.70
2018-07-14T18:09:57.122Z,63.00
2018-07-14T18:12:25.572Z,35.30
2018-07-14T18:14:53.972Z,18.70
2018-07-14T18:17:22.309Z,19.13
2018-07-14T18:19:50.627Z,18.03
2018-07-14T18:22:18.945Z,15.07
2018-07-14T18:24:47.592Z,21.50
2018-07-14T18:27:16.069Z,17.33
2018-07-14T18:29:44.245Z,17.40
2018-07-14T18:32:12.330Z,3.80
2018-07-14T18:34:40.656Z,2.23
2018-07-14T18:37:08.956Z,3.67
2018-07-14T18:39:37.332Z,2.90
2018-07-14T18:42:05.804Z,2.80
2018-07-14T18:44:34.131Z,5.50
2018-07-14T18:47:02.458Z,8.27
2018-07-14T18:49:30.748Z,6.90
2018-07-14T18:51:59.072Z,5.17
2018-07-14T18:54:27.410Z,6.13
2018-07-14T18:56:55.808Z,12.57
2018-07-14T18:59:26.092Z,6.50
2018-07-14T19:01:54.691Z,3.50
2018-07-14T19:04:23.870Z,3.00
2018-07-14T19:06:55.219Z,2.20
2018-07-14T19:09:24.299Z,2.00
2018-07-14T19:11:56.830Z,1.80
2018-07-14T19:14:25.475Z,2.03
2018-07-14T19:16:54.024Z,1.83
2018-07-14T19:19:22.443Z,1.90
2018-07-14T19:21:50.786Z,1.70
2018-07-14T19:24:19.239Z,2.00
2018-07-14T19:26:47.559Z,1.80
2018-07-14T19:29:16.143Z,1.63
2018-07-14T19:31:44.758Z,1.90
2018-07-14T19:34:13.071Z,2.40
2018-07-14T19:36:41.477Z,2.63
2018-07-14T19:39:09.733Z,2.10
2018-07-14T19:41:38.048Z,3.00
2018-07-14T19:44:06.370Z,16.23
2018-07-14T19:46:34.712Z,12.73
2018-07-14T19:49:02.936Z,13.70
2018-07-14T19:51:31.252Z,7.80
2018-07-14T19:53:59.553Z,4.33
2018-07-14T19:56:27.855Z,5.80
2018-07-14T19:58:56.204Z,16.17
2018-07-14T20:01:24.577Z,9.77
2018-07-14T20:03:53.009Z,5.10
2018-07-14T20:06:21.357Z,5.80
2018-07-14T20:08:49.657Z,3.47
2018-07-14T20:11:18.039Z,2.60
2018-07-14T20:13:46.459Z,2.90
2018-07-14T20:16:14.780Z,2.27
2018-07-14T20:18:43.079Z,2.50
2018-07-14T20:21:11.382Z,2.10
2018-07-14T20:23:39.711Z,2.03
2018-07-14T20:26:08.280Z,2.50
2018-07-14T20:28:36.635Z,2.40
2018-07-14T20:31:04.986Z,3.63
2018-07-14T20:33:33.339Z,9.30
2018-07-14T20:36:01.687Z,20.83
2018-07-14T20:38:30.019Z,25.23
2018-07-14T20:40:58.379Z,13.87
2018-07-14T20:43:26.706Z,12.63
2018-07-14T20:45:55.100Z,14.07
2018-07-14T20:48:23.414Z,13.80
2018-07-14T20:50:51.814Z,13.73
2018-07-14T20:53:20.128Z,13.77
2018-07-14T20:55:48.460Z,13.43
2018-07-14T20:58:16.824Z,14.07
2018-07-14T21:00:45.169Z,13.20
2018-07-14T21:03:13.519Z,14.27
2018-07-14T21:05:41.878Z,14.53
2018-07-14T21:08:10.228Z,12.93
2018-07-14T21:10:38.753Z,13.80
2018-07-14T21:13:07.087Z,13.77
2018-07-14T21:15:35.497Z,13.80
2018-07-14T21:18:03.840Z,13.13
2018-07-14T21:20:31.978Z,12.47
2018-07-14T21:23:00.362Z,13.17
2018-07-14T21:25:28.744Z,12.90
2018-07-14T21:27:57.116Z,12.67
2018-07-14T21:30:25.446Z,11.57
2018-07-14T21:32:53.788Z,11.80
2018-07-14T21:35:22.119Z,12.07
2018-07-14T21:37:50.463Z,10.83
2018-07-14T21:40:19.467Z,11.13
2018-07-14T21:42:47.743Z,10.57
2018-07-14T21:45:16.099Z,18.03
2018-07-14T21:47:44.403Z,32.77
2018-07-14T21:50:12.875Z,29.17
2018-07-14T21:52:41.166Z,26.53
2018-07-14T21:55:09.543Z,37.83
2018-07-14T21:57:37.902Z,44.47
2018-07-14T22:00:06.231Z,38.33
2018-07-14T22:02:34.740Z,38.03
2018-07-14T22:05:03.087Z,35.37
2018-07-14T22:07:31.554Z,34.83
2018-07-14T22:09:59.844Z,36.67
2018-07-14T22:12:28.199Z,37.20
2018-07-14T22:14:56.610Z,36.00
2018-07-14T22:17:24.903Z,37.90
2018-07-14T22:19:53.291Z,37.77
2018-07-14T22:22:21.614Z,37.83
2018-07-14T22:24:50.061Z,38.23
2018-07-14T22:27:18.115Z,37.63
2018-07-14T22:29:46.455Z,36.97
2018-07-14T22:32:14.860Z,36.60
2018-07-14T22:34:43.175Z,36.77
2018-07-14T22:37:11.578Z,35.13
2018-07-14T22:39:39.919Z,29.17
2018-07-14T22:42:08.252Z,30.03
2018-07-14T22:44:36.572Z,30.63
2018-07-14T22:47:05.021Z,50.00
2018-07-14T22:49:33.376Z,51.70
2018-07-14T22:52:01.482Z,45.33
2018-07-14T22:54:31.810Z,43.30
2018-07-14T22:57:00.166Z,50.23
2018-07-14T22:59:28.507Z,52.47
2018-07-14T23:01:56.584Z,55.77
2018-07-14T23:04:25.045Z,51.90
2018-07-14T23:06:53.391Z,47.67
2018-07-14T23:09:22.283Z,49.20
2018-07-14T23:11:50.649Z,47.10
2018-07-14T23:14:19.103Z,48.17
2018-07-14T23:16:47.635Z,49.37
2018-07-14T23:19:15.992Z,48.97
2018-07-14T23:21:45.358Z,46.27
2018-07-14T23:24:13.728Z,47.13
2018-07-14T23:26:42.335Z,41.80
2018-07-14T23:29:10.696Z,48.33
2018-07-14T23:31:39.485Z,47.13
2018-07-14T23:34:07.832Z,47.10
2018-07-14T23:36:36.172Z,46.57
2018-07-14T23:39:06.298Z,44.47
2018-07-14T23:41:34.638Z,43.53
2018-07-14T23:44:03.035Z,43.67
2018-07-14T23:46:31.480Z,42.77
2018-07-14T23:48:59.777Z,39.93
2018-07-14T23:51:28.130Z,36.20
2018-07-14T23:53:56.514Z,35.63
2018-07-14T23:56:24.890Z,72.97
2018-07-14T23:58:53.188Z,67.40
